sensor_id;sensor_type;location;lat;lon;timestamp;pressure;altitude;pressure_sealevel;temperature;humidity
69879;BME280;57161;43.136;24.706;2024-03-08T00:00:58;99505.75;;;6.46;93.35
69879;BME280;57161;43.136;24.706;2024-03-08T00:03:24;99495.44;;;6.36;93.22
69879;BME280;57161;43.136;24.706;2024-03-08T00:05:49;99506.78;;;6.43;93.22
69879;BME280;57161;43.136;24.706;2024-03-08T00:08:15;99500.97;;;6.41;93.08
69879;BME280;57161;43.136;24.706;2024-03-08T00:10:40;99496.94;;;6.42;93.73
69879;BME280;57161;43.136;24.706;2024-03-08T00:13:06;99483.31;;;6.33;93.25
69879;BME280;57161;43.136;24.706;2024-03-08T00:15:31;99507.28;;;6.42;93.16
69879;BME280;57161;43.136;24.706;2024-03-08T00:17:57;99489.13;;;6.29;93.35
69879;BME280;57161;43.136;24.706;2024-03-08T00:20:23;99456.38;;;6.17;92.75
69879;BME280;57161;43.136;24.706;2024-03-08T00:22:48;99490.38;;;6.40;92.45
69879;BME280;57161;43.136;24.706;2024-03-08T00:25:14;99489.63;;;6.39;92.94
69879;BME280;57161;43.136;24.706;2024-03-08T00:27:40;99491.91;;;6.41;93.10
69879;BME280;57161;43.136;24.706;2024-03-08T00:30:07;99489.63;;;6.39;93.03
69879;BME280;57161;43.136;24.706;2024-03-08T00:32:33;99485.59;;;6.40;92.94
69879;BME280;57161;43.136;24.706;2024-03-08T00:34:58;99473.25;;;6.36;92.78
69879;BME280;57161;43.136;24.706;2024-03-08T00:37:24;99478.53;;;6.28;93.42
69879;BME280;57161;43.136;24.706;2024-03-08T00:39:52;99493.41;;;6.42;93.05
69879;BME280;57161;43.136;24.706;2024-03-08T00:42:18;99493.69;;;6.38;93.45
69879;BME280;57161;43.136;24.706;2024-03-08T00:44:46;99492.41;;;6.39;94.11
69879;BME280;57161;43.136;24.706;2024-03-08T00:47:12;99503.47;;;6.50;94.08
69879;BME280;57161;43.136;24.706;2024-03-08T00:49:37;99498.19;;;6.52;94.33
69879;BME280;57161;43.136;24.706;2024-03-08T00:52:06;99495.19;;;6.39;93.38
69879;BME280;57161;43.136;24.706;2024-03-08T00:54:32;99505.31;;;6.03;94.03
69879;BME280;57161;43.136;24.706;2024-03-08T00:56:58;99503.28;;;5.76;95.15
69879;BME280;57161;43.136;24.706;2024-03-08T00:59:24;99502.75;;;5.43;96.48
69879;BME280;57161;43.136;24.706;2024-03-08T01:01:49;99506.47;;;5.24;99.21
69879;BME280;57161;43.136;24.706;2024-03-08T01:04:14;99468.56;;;4.87;99.56
69879;BME280;57161;43.136;24.706;2024-03-08T01:06:40;99500.63;;;5.05;99.47
69879;BME280;57161;43.136;24.706;2024-03-08T01:09:05;99513.72;;;5.04;100.00
69879;BME280;57161;43.136;24.706;2024-03-08T01:11:34;99486.44;;;4.86;100.00
69879;BME280;57161;43.136;24.706;2024-03-08T01:14:00;99512.69;;;5.02;100.00
69879;BME280;57161;43.136;24.706;2024-03-08T01:16:25;99507.41;;;4.98;100.00
69879;BME280;57161;43.136;24.706;2024-03-08T01:18:50;99491.03;;;4.95;100.00
69879;BME280;57161;43.136;24.706;2024-03-08T01:21:16;99516.19;;;4.97;100.00
69879;BME280;57161;43.136;24.706;2024-03-08T01:23:41;99480.16;;;4.80;100.00
69879;BME280;57161;43.136;24.706;2024-03-08T01:26:07;99497.25;;;4.84;99.97
69879;BME280;57161;43.136;24.706;2024-03-08T01:28:33;99501.78;;;4.81;100.00
69879;BME280;57161;43.136;24.706;2024-03-08T01:31:00;99519.47;;;4.90;100.00
69879;BME280;57161;43.136;24.706;2024-03-08T01:33:26;99502.53;;;4.82;100.00
69879;BME280;57161;43.136;24.706;2024-03-08T01:35:53;99512.41;;;4.94;100.00
69879;BME280;57161;43.136;24.706;2024-03-08T01:38:19;99511.09;;;4.84;99.80
69879;BME280;57161;43.136;24.706;2024-03-08T01:40:46;99507.59;;;4.83;100.00
69879;BME280;57161;43.136;24.706;2024-03-08T01:43:28;99510.09;;;4.81;99.70
69879;BME280;57161;43.136;24.706;2024-03-08T01:45:55;99496.25;;;4.76;99.71
69879;BME280;57161;43.136;24.706;2024-03-08T01:48:24;99520.91;;;4.79;100.00
69879;BME280;57161;43.136;24.706;2024-03-08T01:50:50;99518.09;;;4.68;100.00
69879;BME280;57161;43.136;24.706;2024-03-08T01:53:18;99512.03;;;4.64;100.00
69879;BME280;57161;43.136;24.706;2024-03-08T01:55:48;99525.44;;;4.77;99.96
69879;BME280;57161;43.136;24.706;2024-03-08T01:58:14;99517.59;;;4.70;99.92
69879;BME280;57161;43.136;24.706;2024-03-08T02:00:48;99514.06;;;4.69;99.64
69879;BME280;57161;43.136;24.706;2024-03-08T02:03:16;99510.31;;;4.72;99.77
69879;BME280;57161;43.136;24.706;2024-03-08T02:05:42;99520.66;;;4.77;99.50
69879;BME280;57161;43.136;24.706;2024-03-08T02:08:09;99514.59;;;4.73;99.27
69879;BME280;57161;43.136;24.706;2024-03-08T02:10:44;99524.88;;;4.67;99.28
69879;BME280;57161;43.136;24.706;2024-03-08T02:13:10;99523.63;;;4.68;100.00
69879;BME280;57161;43.136;24.706;2024-03-08T02:15:56;99518.63;;;4.72;99.79
69879;BME280;57161;43.136;24.706;2024-03-08T02:18:23;99515.06;;;4.66;99.00
69879;BME280;57161;43.136;24.706;2024-03-08T02:20:52;99524.63;;;4.71;98.61
69879;BME280;57161;43.136;24.706;2024-03-08T02:23:19;99510.72;;;4.54;98.77
69879;BME280;57161;43.136;24.706;2024-03-08T02:25:45;99493.72;;;4.30;99.54
69879;BME280;57161;43.136;24.706;2024-03-08T02:28:11;99531.03;;;4.40;99.98
69879;BME280;57161;43.136;24.706;2024-03-08T02:30:37;99524.16;;;4.30;100.00
69879;BME280;57161;43.136;24.706;2024-03-08T02:33:07;99525.09;;;4.21;100.00
69879;BME280;57161;43.136;24.706;2024-03-08T02:35:34;99522.56;;;4.17;100.00
69879;BME280;57161;43.136;24.706;2024-03-08T02:38:01;99534.16;;;4.21;100.00
69879;BME280;57161;43.136;24.706;2024-03-08T02:40:26;99524.03;;;4.13;100.00
69879;BME280;57161;43.136;24.706;2024-03-08T02:42:52;99536.97;;;4.27;100.00
69879;BME280;57161;43.136;24.706;2024-03-08T02:45:18;99527.41;;;4.28;100.00
69879;BME280;57161;43.136;24.706;2024-03-08T02:47:43;99525.97;;;4.38;99.68
69879;BME280;57161;43.136;24.706;2024-03-08T02:50:09;99536.97;;;4.27;99.33
69879;BME280;57161;43.136;24.706;2024-03-08T02:52:35;99529.31;;;4.11;99.48
69879;BME280;57161;43.136;24.706;2024-03-08T02:55:01;99542.66;;;4.12;100.00
69879;BME280;57161;43.136;24.706;2024-03-08T02:57:27;99536.84;;;4.10;100.00
69879;BME280;57161;43.136;24.706;2024-03-08T02:59:53;99535.81;;;4.08;100.00
69879;BME280;57161;43.136;24.706;2024-03-08T03:02:19;99533.53;;;4.06;100.00
69879;BME280;57161;43.136;24.706;2024-03-08T03:04:45;99521.50;;;4.09;100.00
69879;BME280;57161;43.136;24.706;2024-03-08T03:07:11;99516.41;;;4.02;100.00
69879;BME280;57161;43.136;24.706;2024-03-08T03:09:36;99516.41;;;4.02;100.00
69879;BME280;57161;43.136;24.706;2024-03-08T03:12:02;99540.44;;;4.22;100.00
69879;BME280;57161;43.136;24.706;2024-03-08T03:14:28;99527.66;;;4.25;99.75
69879;BME280;57161;43.136;24.706;2024-03-08T03:16:53;99542.28;;;4.31;100.00
69879;BME280;57161;43.136;24.706;2024-03-08T03:19:20;99512.78;;;4.22;100.00
69879;BME280;57161;43.136;24.706;2024-03-08T03:21:46;99551.19;;;4.46;99.19
69879;BME280;57161;43.136;24.706;2024-03-08T03:24:12;99540.88;;;4.52;98.98
69879;BME280;57161;43.136;24.706;2024-03-08T03:26:41;99546.66;;;4.48;98.57
69879;BME280;57161;43.136;24.706;2024-03-08T03:29:09;99553.91;;;4.40;98.50
69879;BME280;57161;43.136;24.706;2024-03-08T03:31:36;99547.63;;;4.40;99.27
69879;BME280;57161;43.136;24.706;2024-03-08T03:34:02;99550.03;;;4.27;98.95
69879;BME280;57161;43.136;24.706;2024-03-08T03:36:32;99547.53;;;4.29;99.25
69879;BME280;57161;43.136;24.706;2024-03-08T03:38:58;99542.44;;;4.21;99.74
69879;BME280;57161;43.136;24.706;2024-03-08T03:41:35;99556.59;;;4.29;99.26
69879;BME280;57161;43.136;24.706;2024-03-08T03:44:00;99541.19;;;4.22;100.00
69879;BME280;57161;43.136;24.706;2024-03-08T03:46:26;99548.47;;;4.20;99.91
69879;BME280;57161;43.136;24.706;2024-03-08T03:48:52;99553.63;;;4.38;99.58
69879;BME280;57161;43.136;24.706;2024-03-08T03:51:18;99547.06;;;4.36;98.17
69879;BME280;57161;43.136;24.706;2024-03-08T03:53:44;99558.63;;;4.34;98.89
69879;BME280;57161;43.136;24.706;2024-03-08T03:56:10;99551.72;;;4.18;99.87
69879;BME280;57161;43.136;24.706;2024-03-08T03:58:36;99576.44;;;4.28;99.02
69879;BME280;57161;43.136;24.706;2024-03-08T04:01:04;99551.72;;;4.18;99.23
69879;BME280;57161;43.136;24.706;2024-03-08T04:03:30;99575.81;;;4.44;99.06
69879;BME280;57161;43.136;24.706;2024-03-08T04:05:55;99563.41;;;4.34;98.10
69879;BME280;57161;43.136;24.706;2024-03-08T04:08:21;99573.94;;;4.30;99.24
69879;BME280;57161;43.136;24.706;2024-03-08T04:10:46;99578.53;;;4.38;99.05
69879;BME280;57161;43.136;24.706;2024-03-08T04:13:12;99566.88;;;4.23;98.85
69879;BME280;57161;43.136;24.706;2024-03-08T04:15:37;99587.81;;;4.35;97.99
69879;BME280;57161;43.136;24.706;2024-03-08T04:18:03;99573.09;;;4.18;98.88
69879;BME280;57161;43.136;24.706;2024-03-08T04:20:29;99544.63;;;3.80;100.00
69879;BME280;57161;43.136;24.706;2024-03-08T04:22:55;99590.53;;;3.98;100.00
69879;BME280;57161;43.136;24.706;2024-03-08T04:25:21;99587.66;;;4.13;100.00
69879;BME280;57161;43.136;24.706;2024-03-08T04:27:47;99584.34;;;4.09;100.00
69879;BME280;57161;43.136;24.706;2024-03-08T04:30:14;99585.00;;;3.98;99.62
69879;BME280;57161;43.136;24.706;2024-03-08T04:32:39;99593.34;;;4.04;99.19
69879;BME280;57161;43.136;24.706;2024-03-08T04:35:06;99588.38;;;4.08;99.41
69879;BME280;57161;43.136;24.706;2024-03-08T04:37:33;99593.59;;;4.06;98.84
69879;BME280;57161;43.136;24.706;2024-03-08T04:39:59;99597.63;;;4.05;99.36
69879;BME280;57161;43.136;24.706;2024-03-08T04:42:25;99616.56;;;4.12;99.40
69879;BME280;57161;43.136;24.706;2024-03-08T04:44:52;99611.81;;;4.18;99.30
69879;BME280;57161;43.136;24.706;2024-03-08T04:47:18;99613.06;;;4.17;98.35
69879;BME280;57161;43.136;24.706;2024-03-08T04:49:44;99612.53;;;4.13;98.79
69879;BME280;57161;43.136;24.706;2024-03-08T04:52:10;99606.97;;;4.07;99.00
69879;BME280;57161;43.136;24.706;2024-03-08T04:54:35;99618.50;;;4.06;99.57
69879;BME280;57161;43.136;24.706;2024-03-08T04:57:00;99624.31;;;4.08;97.93
69879;BME280;57161;43.136;24.706;2024-03-08T04:59:27;99618.06;;;4.13;98.56
69879;BME280;57161;43.136;24.706;2024-03-08T05:01:53;99623.63;;;4.18;98.27
69879;BME280;57161;43.136;24.706;2024-03-08T05:04:18;99633.03;;;4.27;98.03
69879;BME280;57161;43.136;24.706;2024-03-08T05:06:43;99636.72;;;4.18;98.25
69879;BME280;57161;43.136;24.706;2024-03-08T05:09:09;99632.44;;;4.17;98.07
69879;BME280;57161;43.136;24.706;2024-03-08T05:11:42;99630.88;;;4.10;98.02
69879;BME280;57161;43.136;24.706;2024-03-08T05:14:08;99632.06;;;4.04;98.03
69879;BME280;57161;43.136;24.706;2024-03-08T05:16:34;99642.63;;;4.05;97.92
69879;BME280;57161;43.136;24.706;2024-03-08T05:18:59;99652.00;;;4.13;98.66
69879;BME280;57161;43.136;24.706;2024-03-08T05:21:25;99662.81;;;4.11;97.20
69879;BME280;57161;43.136;24.706;2024-03-08T05:23:50;99655.50;;;4.08;97.53
69879;BME280;57161;43.136;24.706;2024-03-08T05:26:16;99651.91;;;4.02;98.13
69879;BME280;57161;43.136;24.706;2024-03-08T05:28:42;99666.75;;;4.05;98.33
69879;BME280;57161;43.136;24.706;2024-03-08T05:31:08;99665.31;;;4.09;97.65
69879;BME280;57161;43.136;24.706;2024-03-08T05:33:33;99671.53;;;4.04;95.75
69879;BME280;57161;43.136;24.706;2024-03-08T05:36:00;99662.28;;;4.07;96.40
69879;BME280;57161;43.136;24.706;2024-03-08T05:38:28;99654.13;;;3.98;96.40
69879;BME280;57161;43.136;24.706;2024-03-08T05:40:54;99689.53;;;4.20;96.51
69879;BME280;57161;43.136;24.706;2024-03-08T05:43:20;99686.00;;;4.19;96.82
69879;BME280;57161;43.136;24.706;2024-03-08T05:45:46;99682.25;;;4.22;96.88
69879;BME280;57161;43.136;24.706;2024-03-08T05:48:13;99687.91;;;4.34;96.84
69879;BME280;57161;43.136;24.706;2024-03-08T05:50:39;99687.03;;;4.22;96.13
69879;BME280;57161;43.136;24.706;2024-03-08T05:53:04;99693.63;;;4.25;96.68
69879;BME280;57161;43.136;24.706;2024-03-08T05:55:32;99670.91;;;4.20;96.78
69879;BME280;57161;43.136;24.706;2024-03-08T05:58:01;99702.00;;;4.36;96.75
69879;BME280;57161;43.136;24.706;2024-03-08T06:00:27;99692.56;;;4.22;95.08
69879;BME280;57161;43.136;24.706;2024-03-08T06:02:52;99715.75;;;4.25;95.90
69879;BME280;57161;43.136;24.706;2024-03-08T06:05:18;99713.66;;;4.19;94.77
69879;BME280;57161;43.136;24.706;2024-03-08T06:07:43;99713.41;;;4.17;95.89
69879;BME280;57161;43.136;24.706;2024-03-08T06:10:10;99697.13;;;3.99;95.67
69879;BME280;57161;43.136;24.706;2024-03-08T06:12:37;99725.69;;;4.16;95.96
69879;BME280;57161;43.136;24.706;2024-03-08T06:15:07;99699.94;;;4.05;96.10
69879;BME280;57161;43.136;24.706;2024-03-08T06:17:34;99698.03;;;3.90;97.09
69879;BME280;57161;43.136;24.706;2024-03-08T06:20:00;99716.25;;;4.03;96.73
69879;BME280;57161;43.136;24.706;2024-03-08T06:22:26;99723.09;;;4.07;97.17
69879;BME280;57161;43.136;24.706;2024-03-08T06:24:51;99698.63;;;4.00;96.99
69879;BME280;57161;43.136;24.706;2024-03-08T06:27:17;99701.34;;;3.95;96.80
69879;BME280;57161;43.136;24.706;2024-03-08T06:29:43;99695.81;;;3.95;96.15
69879;BME280;57161;43.136;24.706;2024-03-08T06:32:08;99721.09;;;4.08;96.26
69879;BME280;57161;43.136;24.706;2024-03-08T06:34:34;99744.56;;;4.18;95.39
69879;BME280;57161;43.136;24.706;2024-03-08T06:37:00;99722.63;;;4.09;95.56
69879;BME280;57161;43.136;24.706;2024-03-08T06:39:27;99726.16;;;4.09;95.82
69879;BME280;57161;43.136;24.706;2024-03-08T06:41:54;99742.84;;;4.20;95.34
69879;BME280;57161;43.136;24.706;2024-03-08T06:44:19;99740.06;;;4.20;94.57
69879;BME280;57161;43.136;24.706;2024-03-08T06:46:47;99696.22;;;3.87;95.56
69879;BME280;57161;43.136;24.706;2024-03-08T06:49:13;99736.50;;;4.14;95.25
69879;BME280;57161;43.136;24.706;2024-03-08T06:51:41;99727.38;;;4.08;95.49
69879;BME280;57161;43.136;24.706;2024-03-08T06:54:06;99739.81;;;4.18;95.33
69879;BME280;57161;43.136;24.706;2024-03-08T06:56:34;99734.63;;;4.06;95.52
69879;BME280;57161;43.136;24.706;2024-03-08T06:59:00;99744.53;;;4.12;95.85
69879;BME280;57161;43.136;24.706;2024-03-08T07:01:25;99735.13;;;4.04;95.83
69879;BME280;57161;43.136;24.706;2024-03-08T07:03:51;99739.97;;;4.09;96.53
69879;BME280;57161;43.136;24.706;2024-03-08T07:06:18;99728.56;;;4.02;95.93
69879;BME280;57161;43.136;24.706;2024-03-08T07:08:44;99748.81;;;4.13;96.32
69879;BME280;57161;43.136;24.706;2024-03-08T07:11:11;99755.59;;;4.12;95.29
69879;BME280;57161;43.136;24.706;2024-03-08T07:13:37;99757.31;;;4.10;96.59
69879;BME280;57161;43.136;24.706;2024-03-08T07:16:04;99757.09;;;4.13;97.10
69879;BME280;57161;43.136;24.706;2024-03-08T07:18:30;99771.34;;;4.27;96.05
69879;BME280;57161;43.136;24.706;2024-03-08T07:20:56;99766.34;;;4.31;95.79
69879;BME280;57161;43.136;24.706;2024-03-08T07:23:22;99770.91;;;4.34;94.67
69879;BME280;57161;43.136;24.706;2024-03-08T07:26:06;99763.44;;;4.19;93.81
69879;BME280;57161;43.136;24.706;2024-03-08T07:28:31;99773.59;;;4.28;95.23
69879;BME280;57161;43.136;24.706;2024-03-08T07:30:58;99783.97;;;4.33;95.92
69879;BME280;57161;43.136;24.706;2024-03-08T07:33:42;99760.50;;;4.23;94.54
69879;BME280;57161;43.136;24.706;2024-03-08T07:36:07;99788.03;;;4.38;94.77
69879;BME280;57161;43.136;24.706;2024-03-08T07:38:33;99785.25;;;4.38;94.13
69879;BME280;57161;43.136;24.706;2024-03-08T07:40:59;99791.03;;;4.34;94.05
69879;BME280;57161;43.136;24.706;2024-03-08T07:43:26;99777.91;;;4.29;94.21
69879;BME280;57161;43.136;24.706;2024-03-08T07:45:51;99784.06;;;4.18;94.77
69879;BME280;57161;43.136;24.706;2024-03-08T07:48:18;99758.56;;;3.88;95.53
69879;BME280;57161;43.136;24.706;2024-03-08T07:50:43;99784.22;;;4.09;95.95
69879;BME280;57161;43.136;24.706;2024-03-08T07:53:09;99787.59;;;4.19;96.32
69879;BME280;57161;43.136;24.706;2024-03-08T07:55:35;99767.69;;;4.15;96.19
69879;BME280;57161;43.136;24.706;2024-03-08T07:58:04;99788.59;;;4.42;95.23
69879;BME280;57161;43.136;24.706;2024-03-08T08:00:30;99793.16;;;4.45;94.43
69879;BME280;57161;43.136;24.706;2024-03-08T08:02:56;99794.50;;;4.55;94.02
69879;BME280;57161;43.136;24.706;2024-03-08T08:05:22;99791.41;;;4.47;93.46
69879;BME280;57161;43.136;24.706;2024-03-08T08:07:47;99797.44;;;4.46;93.67
69879;BME280;57161;43.136;24.706;2024-03-08T08:10:13;99794.66;;;4.46;93.42
69879;BME280;57161;43.136;24.706;2024-03-08T08:12:44;99798.47;;;4.48;93.38
69879;BME280;57161;43.136;24.706;2024-03-08T08:15:10;99786.84;;;4.44;92.61
69879;BME280;57161;43.136;24.706;2024-03-08T08:17:36;99787.41;;;4.48;92.48
69879;BME280;57161;43.136;24.706;2024-03-08T08:20:01;99802.03;;;4.55;92.54
69879;BME280;57161;43.136;24.706;2024-03-08T08:22:30;99781.31;;;4.44;92.30
69879;BME280;57161;43.136;24.706;2024-03-08T08:24:55;99808.22;;;4.70;91.89
69879;BME280;57161;43.136;24.706;2024-03-08T08:27:21;99772.25;;;4.44;92.09
69879;BME280;57161;43.136;24.706;2024-03-08T08:29:46;99804.00;;;4.74;91.50
69879;BME280;57161;43.136;24.706;2024-03-08T08:32:13;99789.00;;;4.35;90.72
69879;BME280;57161;43.136;24.706;2024-03-08T08:34:38;99799.94;;;4.44;92.52
69879;BME280;57161;43.136;24.706;2024-03-08T08:37:04;99771.34;;;4.27;91.67
69879;BME280;57161;43.136;24.706;2024-03-08T08:39:29;99796.13;;;4.41;91.76
69879;BME280;57161;43.136;24.706;2024-03-08T08:41:54;99779.13;;;4.28;91.57
69879;BME280;57161;43.136;24.706;2024-03-08T08:44:20;99798.16;;;4.41;92.78
69879;BME280;57161;43.136;24.706;2024-03-08T08:46:45;99789.91;;;4.46;92.37
69879;BME280;57161;43.136;24.706;2024-03-08T08:49:11;99802.03;;;4.55;91.92
69879;BME280;57161;43.136;24.706;2024-03-08T08:51:39;99806.44;;;4.67;91.63
69879;BME280;57161;43.136;24.706;2024-03-08T08:54:05;99782.72;;;4.34;91.91
69879;BME280;57161;43.136;24.706;2024-03-08T08:56:31;99820.78;;;4.65;91.18
69879;BME280;57161;43.136;24.706;2024-03-08T08:58:57;99799.19;;;4.43;90.40
69879;BME280;57161;43.136;24.706;2024-03-08T09:01:23;99811.09;;;4.55;90.25
69879;BME280;57161;43.136;24.706;2024-03-08T09:03:48;99794.63;;;4.40;90.75
69879;BME280;57161;43.136;24.706;2024-03-08T09:06:15;99796.94;;;4.47;91.05
69879;BME280;57161;43.136;24.706;2024-03-08T09:08:42;99802.00;;;4.49;91.59
69879;BME280;57161;43.136;24.706;2024-03-08T09:11:07;99809.16;;;4.61;90.48
69879;BME280;57161;43.136;24.706;2024-03-08T09:13:33;99795.81;;;4.60;90.29
69879;BME280;57161;43.136;24.706;2024-03-08T09:16:04;99818.75;;;4.66;90.77
69879;BME280;57161;43.136;24.706;2024-03-08T09:18:31;99805.94;;;4.68;90.00
69879;BME280;57161;43.136;24.706;2024-03-08T09:21:00;99825.13;;;4.72;90.22
69879;BME280;57161;43.136;24.706;2024-03-08T09:23:26;99795.88;;;4.65;89.19
69879;BME280;57161;43.136;24.706;2024-03-08T09:25:56;99813.28;;;4.71;89.03
69879;BME280;57161;43.136;24.706;2024-03-08T09:28:23;99816.38;;;4.79;90.16
69879;BME280;57161;43.136;24.706;2024-03-08T09:30:48;99806.97;;;4.71;89.01
69879;BME280;57161;43.136;24.706;2024-03-08T09:33:14;99805.19;;;4.68;89.46
69879;BME280;57161;43.136;24.706;2024-03-08T09:35:45;99832.34;;;4.90;89.02
69879;BME280;57161;43.136;24.706;2024-03-08T09:38:12;99824.72;;;4.85;88.72
69879;BME280;57161;43.136;24.706;2024-03-08T09:40:40;99823.63;;;5.02;89.01
69879;BME280;57161;43.136;24.706;2024-03-08T09:43:06;99803.66;;;4.93;88.53
69879;BME280;57161;43.136;24.706;2024-03-08T09:45:36;99825.91;;;5.04;88.73
69879;BME280;57161;43.136;24.706;2024-03-08T09:48:01;99805.94;;;4.94;88.37
69879;BME280;57161;43.136;24.706;2024-03-08T09:50:27;99823.69;;;5.08;87.52
69879;BME280;57161;43.136;24.706;2024-03-08T09:52:55;99825.44;;;5.05;87.54
69879;BME280;57161;43.136;24.706;2024-03-08T09:55:22;99824.94;;;5.07;88.21
69879;BME280;57161;43.136;24.706;2024-03-08T09:57:48;99826.53;;;5.19;88.12
69879;BME280;57161;43.136;24.706;2024-03-08T10:00:32;99815.81;;;5.32;88.79
69879;BME280;57161;43.136;24.706;2024-03-08T10:03:02;99822.47;;;5.46;87.22
69879;BME280;57161;43.136;24.706;2024-03-08T10:05:27;99819.56;;;5.29;86.34
69879;BME280;57161;43.136;24.706;2024-03-08T10:07:53;99822.94;;;5.39;86.39
69879;BME280;57161;43.136;24.706;2024-03-08T10:10:18;99826.47;;;5.39;86.09
69879;BME280;57161;43.136;24.706;2024-03-08T10:12:44;99822.19;;;5.44;86.63
69879;BME280;57161;43.136;24.706;2024-03-08T10:15:11;99798.00;;;5.45;86.22
69879;BME280;57161;43.136;24.706;2024-03-08T10:17:37;99822.38;;;5.72;86.51
69879;BME280;57161;43.136;24.706;2024-03-08T10:20:14;99825.41;;;5.74;87.58
69879;BME280;57161;43.136;24.706;2024-03-08T10:22:41;99813.59;;;5.79;85.79
69879;BME280;57161;43.136;24.706;2024-03-08T10:25:12;99820.25;;;5.93;84.97
69879;BME280;57161;43.136;24.706;2024-03-08T10:27:39;99830.31;;;5.90;83.38
69879;BME280;57161;43.136;24.706;2024-03-08T10:30:14;99832.25;;;5.84;83.68
69879;BME280;57161;43.136;24.706;2024-03-08T10:32:40;99837.00;;;5.72;83.97
69879;BME280;57161;43.136;24.706;2024-03-08T10:35:09;99824.41;;;5.77;84.47
69879;BME280;57161;43.136;24.706;2024-03-08T10:37:46;99830.53;;;5.87;84.12
69879;BME280;57161;43.136;24.706;2024-03-08T10:40:17;99826.94;;;5.75;84.38
69879;BME280;57161;43.136;24.706;2024-03-08T10:42:57;99819.88;;;5.74;84.65
69879;BME280;57161;43.136;24.706;2024-03-08T10:45:38;99816.09;;;5.77;85.58
69879;BME280;57161;43.136;24.706;2024-03-08T10:48:27;99820.63;;;5.75;84.22
69879;BME280;57161;43.136;24.706;2024-03-08T10:51:04;99810.22;;;5.64;85.30
69879;BME280;57161;43.136;24.706;2024-03-08T10:53:30;99815.28;;;5.65;85.18
69879;BME280;57161;43.136;24.706;2024-03-08T10:55:59;99816.06;;;5.71;85.06
69879;BME280;57161;43.136;24.706;2024-03-08T10:58:26;99815.28;;;5.65;85.13
69879;BME280;57161;43.136;24.706;2024-03-08T11:00:53;99808.00;;;5.73;84.70
69879;BME280;57161;43.136;24.706;2024-03-08T11:06:18;99784.66;;;5.49;85.13
69879;BME280;57161;43.136;24.706;2024-03-08T11:08:47;99799.13;;;5.64;85.16
69879;BME280;57161;43.136;24.706;2024-03-08T11:11:31;99801.28;;;5.86;85.27
69879;BME280;57161;43.136;24.706;2024-03-08T11:13:58;99777.78;;;5.76;84.71
69879;BME280;57161;43.136;24.706;2024-03-08T11:19:07;99795.63;;;5.69;82.94
69879;BME280;57161;43.136;24.706;2024-03-08T11:21:57;99806.44;;;5.61;84.37
69879;BME280;57161;43.136;24.706;2024-03-08T11:24:23;99788.53;;;5.57;84.72
69879;BME280;57161;43.136;24.706;2024-03-08T11:26:49;99792.06;;;5.63;84.44
69879;BME280;57161;43.136;24.706;2024-03-08T11:32:08;99793.84;;;5.66;84.43
69879;BME280;57161;43.136;24.706;2024-03-08T11:34:41;99791.06;;;5.66;84.38
69879;BME280;57161;43.136;24.706;2024-03-08T11:37:14;99792.41;;;5.76;84.68
69879;BME280;57161;43.136;24.706;2024-03-08T11:39:46;99797.69;;;5.80;84.66
69879;BME280;57161;43.136;24.706;2024-03-08T11:42:12;99793.13;;;5.71;84.41
69879;BME280;57161;43.136;24.706;2024-03-08T11:44:38;99792.81;;;5.58;85.41
69879;BME280;57161;43.136;24.706;2024-03-08T11:47:09;99789.50;;;5.54;85.10
69879;BME280;57161;43.136;24.706;2024-03-08T11:49:35;99791.56;;;5.59;85.66
69879;BME280;57161;43.136;24.706;2024-03-08T11:52:01;99790.25;;;5.17;87.26
69879;BME280;57161;43.136;24.706;2024-03-08T11:54:28;99792.63;;;5.30;88.53
69879;BME280;57161;43.136;24.706;2024-03-08T11:56:56;99776.50;;;5.28;88.08
69879;BME280;57161;43.136;24.706;2024-03-08T11:59:27;99798.75;;;5.39;87.32
69879;BME280;57161;43.136;24.706;2024-03-08T12:02:06;99796.41;;;5.32;87.94
69879;BME280;57161;43.136;24.706;2024-03-08T12:04:32;99787.81;;;5.25;87.21
69879;BME280;57161;43.136;24.706;2024-03-08T12:07:01;99790.19;;;5.43;86.78
69879;BME280;57161;43.136;24.706;2024-03-08T12:09:28;99788.97;;;5.50;86.50
69879;BME280;57161;43.136;24.706;2024-03-08T12:11:54;99796.28;;;5.53;86.36
69879;BME280;57161;43.136;24.706;2024-03-08T12:14:19;99773.31;;;5.47;86.51
69879;BME280;57161;43.136;24.706;2024-03-08T12:16:46;99787.94;;;5.47;86.59
69879;BME280;57161;43.136;24.706;2024-03-08T12:19:12;99756.09;;;5.31;86.00
69879;BME280;57161;43.136;24.706;2024-03-08T12:21:38;99793.81;;;5.55;85.50
69879;BME280;57161;43.136;24.706;2024-03-08T12:24:10;99793.75;;;5.49;85.73
69879;BME280;57161;43.136;24.706;2024-03-08T12:26:37;99785.66;;;5.40;86.43
69879;BME280;57161;43.136;24.706;2024-03-08T12:29:19;99745.91;;;5.11;85.95
69879;BME280;57161;43.136;24.706;2024-03-08T12:31:52;99790.75;;;5.53;85.79
69879;BME280;57161;43.136;24.706;2024-03-08T12:34:18;99794.50;;;5.50;85.36
69879;BME280;57161;43.136;24.706;2024-03-08T12:36:48;99788.47;;;5.51;85.46
69879;BME280;57161;43.136;24.706;2024-03-08T12:39:19;99782.41;;;5.47;85.67
69879;BME280;57161;43.136;24.706;2024-03-08T12:41:48;99778.44;;;5.54;85.75
69879;BME280;57161;43.136;24.706;2024-03-08T12:44:14;99780.28;;;5.73;84.74
69879;BME280;57161;43.136;24.706;2024-03-08T12:46:40;99780.56;;;5.76;84.79
69879;BME280;57161;43.136;24.706;2024-03-08T12:49:09;99772.16;;;5.64;85.05
69879;BME280;57161;43.136;24.706;2024-03-08T12:51:35;99765.09;;;5.63;84.56
69879;BME280;57161;43.136;24.706;2024-03-08T12:54:02;99782.31;;;5.73;85.41
69879;BME280;57161;43.136;24.706;2024-03-08T12:56:35;99786.38;;;5.83;85.24
69879;BME280;57161;43.136;24.706;2024-03-08T12:59:03;99785.94;;;5.90;84.58
69879;BME280;57161;43.136;24.706;2024-03-08T13:01:29;99778.31;;;5.85;84.44
69879;BME280;57161;43.136;24.706;2024-03-08T13:04:00;99772.50;;;5.83;84.52
69879;BME280;57161;43.136;24.706;2024-03-08T13:06:28;99793.31;;;6.05;84.07
69879;BME280;57161;43.136;24.706;2024-03-08T13:08:54;99789.81;;;6.15;83.86